Time;durP1;ratioP1;P1;durP2;ratioP2;P2;SDS_P1;SDS_P2;PMS_P1;PMS_P2;Temp;Humidity;BMP_temperature;BMP_pressure;BME280_temperature;BME280_humidity;BME280_pressure;Samples;Min_cycle;Max_cycle;Signal;HPM_P1;HPM_P2
2023/02/26 00:01:47;;;;;;;6.18;3.15;;;;;;;;;;5084901;28;20032;-49
2023/02/26 00:04:14;;;;;;;4.55;2.50;;;;;;;;;;5084464;28;20020;-46
2023/02/26 00:06:58;;;;;;;4.93;2.10;;;;;;;;;;5086158;28;20039;-45
2023/02/26 00:09:25;;;;;;;5.50;2.10;;;;;;;;;;5086438;28;20067;-45
2023/02/26 00:11:52;;;;;;;3.58;2.50;;;;;;;;;;5086556;28;20035;-46
2023/02/26 00:14:18;;;;;;;2.90;1.70;;;;;;;;;;5085188;28;20456;-46
2023/02/26 00:16:47;;;;;;;5.95;2.30;;;;;;;;;;5086331;28;20032;-47
2023/02/26 00:19:13;;;;;;;4.70;1.90;;;;;;;;;;5085849;28;20024;-47
2023/02/26 00:21:39;;;;;;;4.60;1.88;;;;;;;;;;5086937;28;20031;-47
2023/02/26 00:24:05;;;;;;;5.45;2.05;;;;;;;;;;5086407;28;20024;-45
2023/02/26 00:26:32;;;;;;;4.53;1.75;;;;;;;;;;5086392;28;20035;-49
2023/02/26 00:28:58;;;;;;;2.47;1.60;;;;;;;;;;5086176;28;20377;-46
2023/02/26 00:31:24;;;;;;;3.15;1.50;;;;;;;;;;5086321;28;20028;-46
2023/02/26 00:33:51;;;;;;;2.35;1.20;;;;;;;;;;5085862;28;20075;-46
2023/02/26 00:36:29;;;;;;;3.67;1.52;;;;;;;;;;5085828;28;20060;-47
2023/02/26 00:39:06;;;;;;;2.22;1.30;;;;;;;;;;5085989;28;20419;-46
2023/02/26 00:41:32;;;;;;;3.25;1.60;;;;;;;;;;5085960;28;20030;-48
2023/02/26 00:43:58;;;;;;;5.47;1.80;;;;;;;;;;5086048;28;20024;-47
2023/02/26 00:46:31;;;;;;;4.32;1.80;;;;;;;;;;5085934;28;20036;-47
2023/02/26 00:49:00;;;;;;;2.95;1.40;;;;;;;;;;5085866;28;20107;-47
2023/02/26 00:51:25;;;;;;;3.25;1.90;;;;;;;;;;5086051;28;20063;-47
2023/02/26 00:53:58;;;;;;;3.67;1.90;;;;;;;;;;5085741;28;20058;-46
2023/02/26 00:56:25;;;;;;;3.55;1.50;;;;;;;;;;5085784;28;20043;-46
2023/02/26 00:58:51;;;;;;;3.50;1.55;;;;;;;;;;5086176;28;20021;-46
2023/02/26 01:01:17;;;;;;;3.42;1.35;;;;;;;;;;5085587;28;20038;-47
2023/02/26 01:03:43;;;;;;;4.10;1.60;;;;;;;;;;5085444;28;20043;-47
2023/02/26 06:13:03;;;;;;;2.35;1.55;;;;;;;;;;5124417;27;20073;-47
2023/02/26 06:15:29;;;;;;;2.40;1.35;;;;;;;;;;5128544;27;20040;-46
2023/02/26 06:17:55;;;;;;;3.25;1.40;;;;;;;;;;5112228;28;20028;-47
2023/02/26 06:20:21;;;;;;;1.55;1.15;;;;;;;;;;5112221;28;20539;-46
2023/02/26 06:22:47;;;;;;;1.83;1.30;;;;;;;;;;5111980;28;20479;-47
2023/02/26 06:25:13;;;;;;;2.45;1.20;;;;;;;;;;5112119;28;20022;-48
2023/02/26 06:27:39;;;;;;;2.80;1.23;;;;;;;;;;5111748;28;20038;-46
2023/02/26 06:30:05;;;;;;;2.58;1.38;;;;;;;;;;5112245;28;20023;-47
2023/02/26 06:32:31;;;;;;;4.30;1.25;;;;;;;;;;5111707;28;20032;-45
2023/02/26 06:34:57;;;;;;;4.15;1.40;;;;;;;;;;5111759;28;20107;-44
2023/02/26 06:37:23;;;;;;;2.63;1.48;;;;;;;;;;5111900;28;20436;-45
2023/02/26 06:39:49;;;;;;;3.17;1.50;;;;;;;;;;5111484;28;20016;-45
2023/02/26 06:42:15;;;;;;;2.28;1.20;;;;;;;;;;5111609;28;20099;-45
2023/02/26 06:44:41;;;;;;;2.83;1.45;;;;;;;;;;5111478;28;20024;-46
2023/02/26 06:47:07;;;;;;;2.90;1.50;;;;;;;;;;5112098;28;20077;-47
2023/02/26 06:49:33;;;;;;;2.08;1.30;;;;;;;;;;5097653;28;20028;-44
2023/02/26 06:51:59;;;;;;;1.90;1.60;;;;;;;;;;5094036;28;21014;-45
2023/02/26 06:54:25;;;;;;;2.88;1.33;;;;;;;;;;5100821;28;20106;-45
2023/02/26 06:56:51;;;;;;;3.60;1.38;;;;;;;;;;5106623;28;20401;-46
2023/02/26 06:59:17;;;;;;;1.75;1.30;;;;;;;;;;5093645;28;20107;-47
2023/02/26 07:01:43;;;;;;;2.13;1.38;;;;;;;;;;5111911;28;20023;-45
2023/02/26 07:04:09;;;;;;;2.65;1.40;;;;;;;;;;5111578;28;20436;-44
2023/02/26 07:06:35;;;;;;;5.88;1.58;;;;;;;;;;5111416;28;20106;-43
2023/02/26 07:09:01;;;;;;;3.25;1.88;;;;;;;;;;5110858;28;20027;-46
2023/02/26 07:11:27;;;;;;;3.15;1.65;;;;;;;;;;5110303;28;20165;-45
2023/02/26 07:13:54;;;;;;;2.15;1.58;;;;;;;;;;5111284;28;20549;-44
2023/02/26 07:16:20;;;;;;;5.15;1.98;;;;;;;;;;5111277;28;20039;-45
2023/02/26 07:18:46;;;;;;;2.88;1.88;;;;;;;;;;5111267;28;20023;-46
2023/02/26 07:21:12;;;;;;;3.20;1.48;;;;;;;;;;5111284;28;20030;-45
2023/02/26 07:23:38;;;;;;;3.15;1.70;;;;;;;;;;5111540;28;20084;-45
2023/02/26 07:26:04;;;;;;;2.75;1.80;;;;;;;;;;5110874;28;20080;-47
2023/02/26 07:28:30;;;;;;;2.53;1.58;;;;;;;;;;5110758;28;20028;-45
2023/02/26 07:30:57;;;;;;;5.13;2.00;;;;;;;;;;5108353;28;20588;-46
2023/02/26 07:33:23;;;;;;;4.40;2.10;;;;;;;;;;5110489;28;20084;-45
2023/02/26 07:35:50;;;;;;;3.88;2.08;;;;;;;;;;5110988;28;20488;-47
2023/02/26 07:38:16;;;;;;;3.22;1.90;;;;;;;;;;5109444;28;20030;-45
2023/02/26 07:40:42;;;;;;;4.85;2.45;;;;;;;;;;5110371;28;20445;-49
2023/02/26 07:43:08;;;;;;;4.20;2.03;;;;;;;;;;5109195;28;20085;-47
2023/02/26 07:45:34;;;;;;;4.10;2.20;;;;;;;;;;5120536;27;20436;-45
2023/02/26 07:48:00;;;;;;;3.50;1.95;;;;;;;;;;5111646;27;20035;-47
2023/02/26 07:50:26;;;;;;;4.10;2.28;;;;;;;;;;5114113;27;20028;-45
2023/02/26 07:52:52;;;;;;;2.85;1.88;;;;;;;;;;5110305;28;20111;-45
2023/02/26 07:55:19;;;;;;;2.92;2.00;;;;;;;;;;5109333;28;20085;-45
2023/02/26 07:57:45;;;;;;;4.80;2.50;;;;;;;;;;5110281;28;20107;-45
2023/02/26 08:00:12;;;;;;;5.60;2.78;;;;;;;;;;5109702;28;20026;-45
2023/02/26 08:02:38;;;;;;;4.78;2.10;;;;;;;;;;5110841;28;20031;-46
2023/02/26 08:05:04;;;;;;;3.63;2.05;;;;;;;;;;5109940;28;20047;-47
2023/02/26 08:07:30;;;;;;;3.47;1.80;;;;;;;;;;5109993;28;20114;-48
2023/02/26 08:09:56;;;;;;;4.55;2.00;;;;;;;;;;5109607;28;20440;-45
2023/02/26 08:12:22;;;;;;;3.33;1.73;;;;;;;;;;5110056;28;20089;-45
2023/02/26 08:14:48;;;;;;;2.38;1.50;;;;;;;;;;5106444;28;20390;-45
2023/02/26 08:17:14;;;;;;;2.20;1.63;;;;;;;;;;5108093;28;20043;-45
2023/02/26 08:19:40;;;;;;;3.75;1.20;;;;;;;;;;5107236;28;20023;-47
2023/02/26 08:22:07;;;;;;;1.85;1.13;;;;;;;;;;5106705;28;20411;-44
2023/02/26 08:24:33;;;;;;;2.33;1.50;;;;;;;;;;5107541;28;20024;-46
2023/02/26 08:26:59;;;;;;;3.03;1.52;;;;;;;;;;5106367;28;20555;-46
2023/02/26 08:29:25;;;;;;;2.83;1.42;;;;;;;;;;5105978;28;20502;-46
2023/02/26 08:31:51;;;;;;;2.05;1.27;;;;;;;;;;5107938;28;20080;-46
2023/02/26 08:34:17;;;;;;;2.25;1.30;;;;;;;;;;5107414;28;20673;-44
2023/02/26 08:36:43;;;;;;;4.07;1.83;;;;;;;;;;5106672;28;20129;-47
2023/02/26 08:39:09;;;;;;;3.55;2.03;;;;;;;;;;5105996;28;20379;-46
2023/02/26 08:41:35;;;;;;;2.97;1.42;;;;;;;;;;5106012;28;20579;-47
2023/02/26 08:44:02;;;;;;;3.60;1.70;;;;;;;;;;5105873;28;20501;-45
2023/02/26 08:46:28;;;;;;;3.45;1.98;;;;;;;;;;5102728;28;20052;-45
2023/02/26 08:48:54;;;;;;;3.38;2.00;;;;;;;;;;5093199;28;20035;-46
2023/02/26 08:51:21;;;;;;;2.40;1.60;;;;;;;;;;5106100;28;20028;-44
2023/02/26 08:53:49;;;;;;;2.83;1.60;;;;;;;;;;5107492;28;20015;-44
2023/02/26 08:56:15;;;;;;;3.65;2.08;;;;;;;;;;5108112;28;20047;-44
2023/02/26 08:58:41;;;;;;;3.28;1.88;;;;;;;;;;5106927;28;20019;-44
2023/02/26 09:01:07;;;;;;;2.58;1.58;;;;;;;;;;5107324;28;20559;-45
2023/02/26 09:03:33;;;;;;;3.65;1.40;;;;;;;;;;5107466;28;20020;-45
2023/02/26 09:05:59;;;;;;;3.05;2.00;;;;;;;;;;5107015;28;20032;-45
2023/02/26 09:08:25;;;;;;;1.80;1.38;;;;;;;;;;5107051;28;20024;-45
2023/02/26 09:10:51;;;;;;;2.47;1.48;;;;;;;;;;5107513;28;20024;-44
2023/02/26 09:13:17;;;;;;;2.17;1.35;;;;;;;;;;5107084;28;20352;-45
2023/02/26 09:15:44;;;;;;;2.10;1.35;;;;;;;;;;5105917;28;20554;-45
2023/02/26 09:18:14;;;;;;;2.50;1.27;;;;;;;;;;5106964;28;20102;-44
2023/02/26 09:20:42;;;;;;;2.55;1.40;;;;;;;;;;5106151;28;20023;-44
2023/02/26 09:23:08;;;;;;;1.63;1.30;;;;;;;;;;5105646;28;20019;-45
2023/02/26 09:25:34;;;;;;;4.30;1.50;;;;;;;;;;5106153;28;20395;-44
2023/02/26 09:28:00;;;;;;;3.47;1.85;;;;;;;;;;5105065;28;20056;-45
2023/02/26 09:30:26;;;;;;;2.42;1.20;;;;;;;;;;5106089;28;20031;-45
2023/02/26 09:32:52;;;;;;;1.20;1.02;;;;;;;;;;5106859;28;20409;-44
2023/02/26 09:35:18;;;;;;;3.63;1.10;;;;;;;;;;5110732;28;20032;-44
2023/02/26 09:37:44;;;;;;;1.58;0.95;;;;;;;;;;5110562;28;20028;-45
2023/02/26 09:40:33;;;;;;;1.15;1.00;;;;;;;;;;5109624;28;20107;-44
2023/02/26 09:43:02;;;;;;;1.73;1.08;;;;;;;;;;5090325;28;20043;-44
2023/02/26 09:45:37;;;;;;;1.60;1.20;;;;;;;;;;5107159;28;20036;-45
2023/02/26 09:48:05;;;;;;;1.75;1.00;;;;;;;;;;5104652;28;20027;-43
2023/02/26 09:50:51;;;;;;;2.50;1.20;;;;;;;;;;5111239;28;20066;-45
2023/02/26 09:53:26;;;;;;;2.95;1.20;;;;;;;;;;5109347;28;20046;-44
2023/02/26 09:55:55;;;;;;;2.05;1.58;;;;;;;;;;5107705;28;20458;-44
2023/02/26 09:58:24;;;;;;;2.70;1.40;;;;;;;;;;5106969;28;20031;-45
2023/02/26 10:00:58;;;;;;;2.25;1.17;;;;;;;;;;5110378;28;20096;-45
2023/02/26 10:03:56;;;;;;;2.05;1.35;;;;;;;;;;5107042;28;20525;-45
2023/02/26 10:06:25;;;;;;;1.42;1.30;;;;;;;;;;5064576;28;20051;-45
2023/02/26 10:09:00;;;;;;;1.25;1.00;;;;;;;;;;5110812;28;20031;-45
2023/02/26 10:11:44;;;;;;;1.73;1.08;;;;;;;;;;5107675;28;20027;-45
2023/02/26 10:14:23;;;;;;;1.27;1.13;;;;;;;;;;5101808;28;20047;-45
2023/02/26 10:16:52;;;;;;;1.65;1.10;;;;;;;;;;5097994;28;20085;-45
2023/02/26 10:19:20;;;;;;;2.25;1.48;;;;;;;;;;5111646;27;20035;-44
2023/02/26 10:21:51;;;;;;;2.03;1.25;;;;;;;;;;5117411;27;20107;-45
2023/02/26 10:24:18;;;;;;;1.40;1.02;;;;;;;;;;5103883;27;20413;-45
2023/02/26 10:26:50;;;;;;;1.02;0.85;;;;;;;;;;5097866;27;20476;-44
2023/02/26 10:29:52;;;;;;;1.75;0.90;;;;;;;;;;5100815;28;20028;-45
2023/02/26 10:32:18;;;;;;;1.15;0.60;;;;;;;;;;5017709;28;20387;-44
2023/02/26 10:34:44;;;;;;;0.90;0.80;;;;;;;;;;5091526;28;20059;-44
2023/02/26 10:37:18;;;;;;;1.55;0.90;;;;;;;;;;5110715;28;20092;-44
2023/02/26 10:39:53;;;;;;;2.22;1.00;;;;;;;;;;5110356;28;20031;-44
2023/02/26 10:42:22;;;;;;;1.77;0.95;;;;;;;;;;5110444;28;20027;-45
2023/02/26 10:45:06;;;;;;;2.63;1.10;;;;;;;;;;5114580;27;20530;-44
2023/02/26 10:47:32;;;;;;;1.83;1.10;;;;;;;;;;5110476;28;20059;-44
2023/02/26 10:50:01;;;;;;;1.63;1.10;;;;;;;;;;5110786;28;20026;-45
2023/02/26 10:52:28;;;;;;;2.05;1.10;;;;;;;;;;5125078;27;20087;-45
2023/02/26 10:55:00;;;;;;;2.78;1.45;;;;;;;;;;5109140;28;20055;-45
2023/02/26 10:57:35;;;;;;;1.25;1.10;;;;;;;;;;5106693;28;20047;-44
2023/02/26 11:00:02;;;;;;;1.52;1.05;;;;;;;;;;5109663;27;20027;-47
2023/02/26 11:02:47;;;;;;;2.03;1.30;;;;;;;;;;5107811;28;20039;-45
2023/02/26 11:05:18;;;;;;;2.65;1.40;;;;;;;;;;5109274;28;20119;-45
2023/02/26 11:07:46;;;;;;;2.08;1.23;;;;;;;;;;5109667;28;20042;-45
2023/02/26 11:10:14;;;;;;;1.92;0.90;;;;;;;;;;5109863;28;20046;-44
2023/02/26 11:12:40;;;;;;;1.58;1.25;;;;;;;;;;5108631;28;20482;-45
2023/02/26 11:15:06;;;;;;;1.88;1.00;;;;;;;;;;5108008;28;20050;-44
2023/02/26 11:17:33;;;;;;;1.25;0.93;;;;;;;;;;5108923;27;20027;-45
2023/02/26 11:20:03;;;;;;;1.23;0.98;;;;;;;;;;5109920;28;20027;-44
2023/02/26 11:22:32;;;;;;;1.13;0.95;;;;;;;;;;5109054;28;20035;-44
2023/02/26 11:24:58;;;;;;;2.00;0.98;;;;;;;;;;5110640;28;20019;-45
2023/02/26 11:27:32;;;;;;;1.52;0.70;;;;;;;;;;5109437;28;20117;-44
2023/02/26 11:29:59;;;;;;;1.33;1.00;;;;;;;;;;5108975;28;20034;-44
2023/02/26 11:32:30;;;;;;;1.17;0.85;;;;;;;;;;5089744;28;20406;-46
2023/02/26 11:34:56;;;;;;;0.77;0.73;;;;;;;;;;5100788;28;20417;-44
2023/02/26 11:37:23;;;;;;;1.20;0.90;;;;;;;;;;5109940;28;20439;-44
2023/02/26 11:40:04;;;;;;;1.77;0.88;;;;;;;;;;5109411;28;20600;-45
2023/02/26 11:42:35;;;;;;;1.95;0.90;;;;;;;;;;5110430;28;20038;-45
2023/02/26 11:45:01;;;;;;;1.75;1.08;;;;;;;;;;5101081;28;20023;-48
2023/02/26 11:47:28;;;;;;;2.17;1.27;;;;;;;;;;5108258;28;20096;-46
2023/02/26 11:49:56;;;;;;;2.05;1.27;;;;;;;;;;5108475;28;20878;-44
2023/02/26 11:52:27;;;;;;;3.17;1.77;;;;;;;;;;5108675;28;20496;-45
2023/02/26 11:54:55;;;;;;;3.03;1.70;;;;;;;;;;5109643;28;20046;-45
2023/02/26 11:57:26;;;;;;;2.63;1.67;;;;;;;;;;5104749;28;20402;-53
2023/02/26 11:59:53;;;;;;;1.75;1.20;;;;;;;;;;5108651;28;20609;-45
2023/02/26 12:02:22;;;;;;;1.88;1.30;;;;;;;;;;5103163;28;20030;-44
2023/02/26 12:04:51;;;;;;;1.40;1.08;;;;;;;;;;5109233;28;20031;-46
2023/02/26 12:07:17;;;;;;;1.40;0.88;;;;;;;;;;5109523;28;20045;-45
2023/02/26 12:09:44;;;;;;;3.05;0.80;;;;;;;;;;5108958;28;20049;-45
2023/02/26 12:12:19;;;;;;;1.42;0.80;;;;;;;;;;5109618;28;20032;-46
2023/02/26 12:14:57;;;;;;;0.90;0.70;;;;;;;;;;5095601;28;20027;-45
2023/02/26 12:17:49;;;;;;;1.83;1.00;;;;;;;;;;5127017;27;20023;-45
2023/02/26 12:20:18;;;;;;;1.60;0.85;;;;;;;;;;5087819;27;20035;-45
2023/02/26 12:22:44;;;;;;;1.95;1.10;;;;;;;;;;5122228;27;20088;-44
2023/02/26 12:25:20;;;;;;;1.55;1.10;;;;;;;;;;5127807;27;20015;-46
2023/02/26 12:28:07;;;;;;;1.33;1.00;;;;;;;;;;5123684;27;21659;-45
2023/02/26 12:30:34;;;;;;;1.35;1.00;;;;;;;;;;5106943;27;20046;-45
2023/02/26 12:33:12;;;;;;;1.55;0.80;;;;;;;;;;5126910;27;20031;-44
2023/02/26 12:35:51;;;;;;;1.80;0.88;;;;;;;;;;5126605;27;20042;-45
2023/02/26 12:38:20;;;;;;;2.72;0.90;;;;;;;;;;5129291;27;20466;-45
2023/02/26 12:40:46;;;;;;;2.40;0.80;;;;;;;;;;5129148;27;20050;-45
2023/02/26 12:43:19;;;;;;;0.93;0.85;;;;;;;;;;5113718;27;20038;-45
2023/02/26 12:46:01;;;;;;;1.03;0.87;;;;;;;;;;5109016;27;20629;-45
2023/02/26 12:48:33;;;;;;;1.42;0.90;;;;;;;;;;5129043;27;20094;-44
2023/02/26 12:51:11;;;;;;;0.82;0.80;;;;;;;;;;5129091;27;20028;-45
2023/02/26 12:53:56;;;;;;;0.68;0.68;;;;;;;;;;5128881;27;20031;-45
2023/02/26 12:56:34;;;;;;;0.70;0.52;;;;;;;;;;5128842;27;20031;-47
2023/02/26 12:59:09;;;;;;;1.17;0.73;;;;;;;;;;5118015;27;20077;-44
2023/02/26 13:01:39;;;;;;;1.17;0.80;;;;;;;;;;5122348;27;20030;-46
2023/02/26 13:04:08;;;;;;;1.60;0.80;;;;;;;;;;5128643;27;20027;-45
2023/02/26 13:06:34;;;;;;;1.65;0.80;;;;;;;;;;5128684;27;20024;-44
2023/02/26 13:09:04;;;;;;;1.90;0.77;;;;;;;;;;5128419;27;20428;-45
2023/02/26 13:11:30;;;;;;;1.05;0.73;;;;;;;;;;5128596;27;20068;-45
2023/02/26 13:14:02;;;;;;;1.60;0.70;;;;;;;;;;5128323;27;20027;-46
2023/02/26 13:16:34;;;;;;;1.88;0.80;;;;;;;;;;5128775;27;20080;-45
2023/02/26 13:19:01;;;;;;;1.10;0.80;;;;;;;;;;5128642;27;20055;-46
2023/02/26 13:21:35;;;;;;;1.88;0.80;;;;;;;;;;5119496;27;20535;-50
2023/02/26 13:24:11;;;;;;;0.63;0.60;;;;;;;;;;5128077;28;20509;-47
2023/02/26 13:26:38;;;;;;;1.23;0.70;;;;;;;;;;5125622;28;20019;-45
2023/02/26 13:29:14;;;;;;;1.20;0.65;;;;;;;;;;5122599;28;20174;-45
2023/02/26 13:31:59;;;;;;;1.77;0.80;;;;;;;;;;5127360;28;20019;-45
2023/02/26 13:34:47;;;;;;;1.15;0.60;;;;;;;;;;5126783;28;20478;-46
2023/02/26 13:37:21;;;;;;;1.13;0.70;;;;;;;;;;5128121;28;20066;-45
2023/02/26 13:40:01;;;;;;;1.25;0.80;;;;;;;;;;5126875;28;20016;-45
2023/02/26 13:42:38;;;;;;;1.73;0.80;;;;;;;;;;5124747;28;20498;-46
2023/02/26 13:45:23;;;;;;;1.30;0.70;;;;;;;;;;5125604;28;20164;-44
2023/02/26 13:47:58;;;;;;;1.48;0.70;;;;;;;;;;5126035;28;20027;-46
2023/02/26 13:50:42;;;;;;;0.90;0.70;;;;;;;;;;5125813;28;20090;-46
2023/02/26 13:53:25;;;;;;;0.57;0.57;;;;;;;;;;5105225;28;20034;-46
2023/02/26 13:55:53;;;;;;;1.02;0.68;;;;;;;;;;5105160;28;20076;-45
2023/02/26 13:58:22;;;;;;;0.88;0.77;;;;;;;;;;5108758;28;20055;-46
2023/02/26 14:01:08;;;;;;;0.60;0.60;;;;;;;;;;5125474;28;20034;-46
2023/02/26 14:03:44;;;;;;;2.40;0.88;;;;;;;;;;5114759;28;20558;-45
2023/02/26 14:06:30;;;;;;;0.70;0.60;;;;;;;;;;5126741;28;20446;-44
2023/02/26 14:08:57;;;;;;;1.40;1.02;;;;;;;;;;5125675;28;20034;-47
2023/02/26 14:11:36;;;;;;;0.85;0.60;;;;;;;;;;5125003;28;20114;-47
2023/02/26 14:14:09;;;;;;;0.60;0.60;;;;;;;;;;5116521;28;20403;-45
2023/02/26 14:16:35;;;;;;;2.20;0.77;;;;;;;;;;5095721;28;20073;-45
2023/02/26 14:19:16;;;;;;;1.52;0.80;;;;;;;;;;5103734;28;20119;-46
2023/02/26 14:21:51;;;;;;;2.00;0.80;;;;;;;;;;5108084;28;20047;-45
2023/02/26 14:24:31;;;;;;;1.23;0.70;;;;;;;;;;5107522;28;20034;-47
2023/02/26 14:27:23;;;;;;;1.40;0.93;;;;;;;;;;5106491;28;20036;-46
2023/02/26 14:29:55;;;;;;;1.88;0.82;;;;;;;;;;5083331;28;20039;-46
2023/02/26 14:32:33;;;;;;;1.08;0.80;;;;;;;;;;5106521;28;20046;-46
2023/02/26 14:35:09;;;;;;;1.10;0.80;;;;;;;;;;5095596;28;20467;-47
2023/02/26 14:37:36;;;;;;;1.00;0.75;;;;;;;;;;5107250;28;20101;-46
2023/02/26 14:40:07;;;;;;;1.73;0.88;;;;;;;;;;5106738;28;20088;-45
2023/02/26 14:42:35;;;;;;;0.77;0.60;;;;;;;;;;5106305;28;20034;-44
2023/02/26 14:45:22;;;;;;;3.17;0.90;;;;;;;;;;5106881;28;20046;-45
2023/02/26 14:47:49;;;;;;;1.65;0.82;;;;;;;;;;5105411;28;20035;-46
2023/02/26 14:50:16;;;;;;;0.90;0.60;;;;;;;;;;5105844;28;20130;-46
2023/02/26 14:52:42;;;;;;;1.65;0.70;;;;;;;;;;5106779;28;20042;-47
2023/02/26 14:55:08;;;;;;;0.90;0.80;;;;;;;;;;5106200;28;20067;-46
2023/02/26 14:57:53;;;;;;;1.98;0.90;;;;;;;;;;5105589;28;20035;-45
2023/02/26 15:00:40;;;;;;;1.25;0.68;;;;;;;;;;5105137;28;20093;-45
2023/02/26 15:03:24;;;;;;;1.45;0.75;;;;;;;;;;5088429;28;20081;-45
2023/02/26 15:06:05;;;;;;;0.50;0.50;;;;;;;;;;5099377;28;20097;-47
2023/02/26 15:08:37;;;;;;;1.35;0.73;;;;;;;;;;5100582;28;20028;-45
2023/02/26 15:11:19;;;;;;;2.30;0.80;;;;;;;;;;5103875;28;20116;-45
2023/02/26 15:14:03;;;;;;;1.92;0.80;;;;;;;;;;5106106;28;20028;-45
2023/02/26 15:16:29;;;;;;;0.95;0.73;;;;;;;;;;5117505;27;20031;-46
2023/02/26 15:19:24;;;;;;;0.70;0.60;;;;;;;;;;5126577;27;20035;-45
2023/02/26 15:21:58;;;;;;;0.98;0.60;;;;;;;;;;5075945;27;20450;-45
2023/02/26 15:24:26;;;;;;;1.45;0.70;;;;;;;;;;5126056;27;20406;-45
2023/02/26 15:26:54;;;;;;;1.73;0.73;;;;;;;;;;5127075;27;20034;-44
2023/02/26 15:29:23;;;;;;;1.67;0.77;;;;;;;;;;5126016;27;20019;-45
2023/02/26 15:31:56;;;;;;;0.90;0.80;;;;;;;;;;5126752;27;20123;-45
2023/02/26 15:34:23;;;;;;;1.08;0.80;;;;;;;;;;5125615;27;20023;-45
2023/02/26 15:36:50;;;;;;;0.90;0.60;;;;;;;;;;5121904;27;20063;-45
2023/02/26 15:39:17;;;;;;;0.80;0.70;;;;;;;;;;5125890;27;20023;-45
2023/02/26 15:41:44;;;;;;;0.60;0.60;;;;;;;;;;5125736;27;20023;-45
2023/02/26 15:44:13;;;;;;;0.80;0.50;;;;;;;;;;5127165;27;20441;-45
2023/02/26 15:46:42;;;;;;;2.03;0.77;;;;;;;;;;5126156;27;20517;-45
2023/02/26 15:49:24;;;;;;;0.95;0.82;;;;;;;;;;5125945;27;20027;-45
2023/02/26 15:51:51;;;;;;;1.25;0.75;;;;;;;;;;5125706;27;20022;-45
2023/02/26 15:54:19;;;;;;;0.95;0.70;;;;;;;;;;5123591;27;20016;-45
2023/02/26 15:56:46;;;;;;;0.80;0.65;;;;;;;;;;5125980;27;20107;-46
2023/02/26 15:59:17;;;;;;;1.73;0.80;;;;;;;;;;5125983;27;20037;-45
2023/02/26 16:01:44;;;;;;;1.95;0.70;;;;;;;;;;5125911;27;20067;-45
2023/02/26 16:04:14;;;;;;;0.85;0.65;;;;;;;;;;5126305;27;20022;-46
2023/02/26 16:06:42;;;;;;;0.95;0.60;;;;;;;;;;5127004;27;20030;-45
2023/02/26 16:09:14;;;;;;;1.25;0.88;;;;;;;;;;5124888;27;20558;-45
2023/02/26 16:11:41;;;;;;;1.58;0.60;;;;;;;;;;5124578;27;20038;-47
2023/02/26 16:14:08;;;;;;;1.38;0.95;;;;;;;;;;5124254;27;20564;-44
2023/02/26 16:16:53;;;;;;;0.93;0.70;;;;;;;;;;5113730;27;20600;-45
2023/02/26 16:19:28;;;;;;;2.17;0.93;;;;;;;;;;5104491;28;20035;-45
2023/02/26 16:21:55;;;;;;;1.42;0.80;;;;;;;;;;5104667;28;20521;-45
2023/02/26 16:24:22;;;;;;;1.30;0.98;;;;;;;;;;5104378;28;20024;-45
2023/02/26 16:26:57;;;;;;;2.70;1.25;;;;;;;;;;5105580;28;20376;-48
2023/02/26 16:29:31;;;;;;;2.42;1.10;;;;;;;;;;5103251;28;20456;-46
2023/02/26 16:31:59;;;;;;;2.42;1.10;;;;;;;;;;5104611;28;20024;-47
2023/02/26 16:34:33;;;;;;;1.45;1.05;;;;;;;;;;5104708;28;20422;-45
2023/02/26 16:37:10;;;;;;;0.95;0.90;;;;;;;;;;5104259;28;20028;-46
2023/02/26 16:39:42;;;;;;;1.02;0.90;;;;;;;;;;5087859;28;20023;-46
2023/02/26 16:42:14;;;;;;;1.00;0.60;;;;;;;;;;5104830;28;20536;-45
2023/02/26 16:44:46;;;;;;;1.23;0.68;;;;;;;;;;5105265;28;20023;-46
2023/02/26 16:47:13;;;;;;;1.95;0.85;;;;;;;;;;5105120;28;20038;-46
2023/02/26 16:49:40;;;;;;;0.70;0.70;;;;;;;;;;5103971;28;20658;-47
2023/02/26 16:52:06;;;;;;;3.88;0.98;;;;;;;;;;5104256;28;20050;-45
2023/02/26 16:54:35;;;;;;;1.02;0.80;;;;;;;;;;5104142;28;20510;-46
2023/02/26 16:57:12;;;;;;;2.45;1.00;;;;;;;;;;5104720;28;20031;-46
2023/02/26 16:59:42;;;;;;;1.52;0.82;;;;;;;;;;5100961;28;20023;-44
2023/02/26 17:02:28;;;;;;;1.27;0.70;;;;;;;;;;5104048;28;20402;-47
2023/02/26 17:04:58;;;;;;;1.05;0.95;;;;;;;;;;5098808;28;20516;-47
2023/02/26 17:07:30;;;;;;;0.68;0.60;;;;;;;;;;5103286;28;20058;-45
2023/02/26 17:10:06;;;;;;;1.25;0.80;;;;;;;;;;5103685;28;20035;-46
2023/02/26 17:12:44;;;;;;;1.63;1.00;;;;;;;;;;5103857;28;20024;-45
2023/02/26 17:15:17;;;;;;;1.95;1.00;;;;;;;;;;5102079;28;20048;-45
2023/02/26 17:17:43;;;;;;;1.27;1.00;;;;;;;;;;5105271;28;20028;-46
2023/02/26 17:20:09;;;;;;;1.20;0.80;;;;;;;;;;5102946;28;20419;-46
2023/02/26 17:22:35;;;;;;;1.27;0.80;;;;;;;;;;5103221;28;20028;-47
2023/02/26 17:25:01;;;;;;;1.13;0.88;;;;;;;;;;5104185;28;20023;-47
2023/02/26 17:27:30;;;;;;;1.63;0.80;;;;;;;;;;5103737;28;20023;-45
2023/02/26 17:29:56;;;;;;;0.40;0.40;;;;;;;;;;5103053;28;20514;-45
2023/02/26 17:32:29;;;;;;;0.95;0.85;;;;;;;;;;5103133;28;20023;-44
2023/02/26 17:34:57;;;;;;;0.88;0.75;;;;;;;;;;5101254;28;20510;-45
2023/02/26 17:37:25;;;;;;;1.08;0.80;;;;;;;;;;5103496;28;20584;-45
2023/02/26 17:39:51;;;;;;;2.08;1.30;;;;;;;;;;5103350;28;20306;-45
2023/02/26 17:42:22;;;;;;;3.28;1.85;;;;;;;;;;5103489;28;20110;-46
2023/02/26 17:44:48;;;;;;;8.00;2.92;;;;;;;;;;5102856;28;20015;-47
2023/02/26 17:47:15;;;;;;;5.97;2.53;;;;;;;;;;5103236;28;20418;-44
2023/02/26 17:49:41;;;;;;;5.13;2.28;;;;;;;;;;5104496;28;20035;-45
2023/02/26 17:52:07;;;;;;;5.47;2.53;;;;;;;;;;5103303;28;20035;-44
2023/02/26 17:54:33;;;;;;;5.95;2.60;;;;;;;;;;5105030;28;20073;-46
2023/02/26 17:57:00;;;;;;;3.50;1.85;;;;;;;;;;5108115;28;20028;-46
2023/02/26 17:59:25;;;;;;;4.93;2.17;;;;;;;;;;5107479;28;20436;-45
2023/02/26 18:01:52;;;;;;;3.35;1.73;;;;;;;;;;5106741;28;20028;-44
2023/02/26 18:04:20;;;;;;;3.38;1.75;;;;;;;;;;5106313;28;20059;-44
2023/02/26 18:06:46;;;;;;;2.35;1.65;;;;;;;;;;5107608;28;21075;-46
2023/02/26 18:09:12;;;;;;;2.28;1.60;;;;;;;;;;5106916;28;20015;-44
2023/02/26 18:11:38;;;;;;;1.38;1.00;;;;;;;;;;5107683;28;20027;-46
2023/02/26 18:14:05;;;;;;;1.75;1.10;;;;;;;;;;5107056;28;20032;-45
2023/02/26 18:16:36;;;;;;;1.02;0.85;;;;;;;;;;5107194;28;20027;-45
2023/02/26 18:19:02;;;;;;;1.13;1.00;;;;;;;;;;5105205;28;20579;-45
2023/02/26 18:21:29;;;;;;;1.83;0.98;;;;;;;;;;5106741;28;20107;-45
2023/02/26 18:23:56;;;;;;;1.27;0.80;;;;;;;;;;5106819;28;20023;-46
2023/02/26 18:26:24;;;;;;;2.05;0.98;;;;;;;;;;5106582;28;20027;-44
2023/02/26 18:28:50;;;;;;;1.70;1.00;;;;;;;;;;5106240;28;20027;-47
2023/02/26 18:31:17;;;;;;;0.95;0.70;;;;;;;;;;5107051;28;20095;-46
2023/02/26 18:33:43;;;;;;;1.83;1.10;;;;;;;;;;5107889;28;20039;-45
2023/02/26 18:36:33;;;;;;;2.35;1.75;;;;;;;;;;5107143;28;20031;-47
2023/02/26 18:39:01;;;;;;;2.72;1.75;;;;;;;;;;5106287;28;20031;-45
2023/02/26 18:41:27;;;;;;;2.15;1.65;;;;;;;;;;5106568;28;20027;-46
2023/02/26 18:43:54;;;;;;;1.83;1.30;;;;;;;;;;5106382;28;20039;-45
2023/02/26 18:46:20;;;;;;;2.67;1.23;;;;;;;;;;5106506;28;20024;-45
2023/02/26 18:48:47;;;;;;;1.85;0.90;;;;;;;;;;5106506;28;20028;-46
2023/02/26 18:51:14;;;;;;;1.40;1.00;;;;;;;;;;5107329;28;20390;-46
2023/02/26 18:53:40;;;;;;;1.77;1.02;;;;;;;;;;5104788;28;20027;-45
2023/02/26 18:56:06;;;;;;;2.17;1.00;;;;;;;;;;5104384;28;20036;-45
2023/02/26 18:58:32;;;;;;;1.00;0.90;;;;;;;;;;5106873;28;20024;-47
2023/02/26 19:00:58;;;;;;;1.67;1.05;;;;;;;;;;5106238;28;20038;-48
2023/02/26 19:03:24;;;;;;;1.73;1.20;;;;;;;;;;5104919;28;20088;-44
2023/02/26 19:06:17;;;;;;;1.73;1.20;;;;;;;;;;5106493;28;20120;-46
2023/02/26 19:08:43;;;;;;;1.58;1.10;;;;;;;;;;5101954;28;20099;-45
2023/02/26 19:11:08;;;;;;;1.42;1.20;;;;;;;;;;5104495;28;20035;-45
2023/02/26 19:13:35;;;;;;;1.52;1.00;;;;;;;;;;5104942;28;20418;-45
2023/02/26 19:16:01;;;;;;;0.90;0.70;;;;;;;;;;5113839;27;20422;-46
2023/02/26 19:18:26;;;;;;;1.25;0.77;;;;;;;;;;5118781;27;20027;-46
2023/02/26 19:20:53;;;;;;;1.27;1.08;;;;;;;;;;5126145;27;20055;-46
2023/02/26 19:23:20;;;;;;;2.15;1.33;;;;;;;;;;5125203;27;20113;-45
2023/02/26 19:25:46;;;;;;;1.23;1.08;;;;;;;;;;5126599;27;20522;-46
2023/02/26 19:28:13;;;;;;;1.13;1.00;;;;;;;;;;5125795;27;20027;-46
2023/02/26 19:30:39;;;;;;;1.10;0.98;;;;;;;;;;5127350;27;20039;-44
2023/02/26 19:33:06;;;;;;;1.38;0.70;;;;;;;;;;5126980;27;20027;-46
2023/02/26 19:35:32;;;;;;;1.63;1.02;;;;;;;;;;5128282;27;20147;-45
2023/02/26 19:37:58;;;;;;;1.45;0.93;;;;;;;;;;5125873;27;20096;-45
2023/02/26 19:40:26;;;;;;;0.70;0.70;;;;;;;;;;5127934;27;20703;-46
2023/02/26 19:42:52;;;;;;;0.90;0.57;;;;;;;;;;5127733;27;20438;-47
2023/02/26 19:45:20;;;;;;;1.60;0.90;;;;;;;;;;5124514;27;20034;-47
2023/02/26 19:47:46;;;;;;;1.13;0.90;;;;;;;;;;5124841;27;20027;-46
2023/02/26 19:50:17;;;;;;;4.32;0.98;;;;;;;;;;5126706;27;20038;-44
2023/02/26 19:52:43;;;;;;;1.42;0.70;;;;;;;;;;5126259;27;20396;-45
2023/02/26 19:55:10;;;;;;;3.53;1.15;;;;;;;;;;5125320;27;20106;-45
2023/02/26 19:57:36;;;;;;;1.10;0.85;;;;;;;;;;5125527;27;20019;-45
2023/02/26 20:00:02;;;;;;;0.88;0.80;;;;;;;;;;5126122;27;20022;-45
2023/02/26 20:02:28;;;;;;;1.10;1.00;;;;;;;;;;5127126;27;20105;-44
2023/02/26 20:04:54;;;;;;;1.60;1.00;;;;;;;;;;5121524;27;20043;-45
2023/02/26 20:07:20;;;;;;;1.00;0.90;;;;;;;;;;5125784;27;20399;-45